createdAt,value
2023-04-09T00:01:25.460Z,6.94
2023-04-09T00:03:52.049Z,6.74
2023-04-09T00:06:18.671Z,6.75
2023-04-09T00:08:45.184Z,6.75
2023-04-09T00:11:11.726Z,6.78
2023-04-09T00:13:39.965Z,6.86
2023-04-09T00:16:07.871Z,6.80
2023-04-09T00:18:34.534Z,6.68
2023-04-09T00:21:01.085Z,6.74
2023-04-09T00:23:27.666Z,6.71
2023-04-09T00:25:57.261Z,6.69
2023-04-09T00:28:23.750Z,6.60
2023-04-09T00:30:50.317Z,6.71
2023-04-09T00:33:18.575Z,6.78
2023-04-09T00:35:45.175Z,6.84
2023-04-09T00:38:11.737Z,6.79
2023-04-09T00:40:38.220Z,6.99
2023-04-09T00:43:07.074Z,6.91
2023-04-09T00:45:33.753Z,6.98
2023-04-09T00:48:00.340Z,6.91
2023-04-09T00:50:26.897Z,6.98
2023-04-09T00:52:53.425Z,7.04
2023-04-09T00:55:21.385Z,6.80
2023-04-09T00:57:47.913Z,6.68
2023-04-09T01:00:15.005Z,6.65
2023-04-09T01:02:41.667Z,6.58
2023-04-09T01:05:08.678Z,6.56
2023-04-09T01:07:44.402Z,6.51
2023-04-09T01:10:33.900Z,6.42
2023-04-09T01:13:29.058Z,6.33
2023-04-09T01:15:58.466Z,6.31
2023-04-09T01:18:31.521Z,6.37
2023-04-09T01:21:06.352Z,6.61
2023-04-09T01:24:07.005Z,6.54
2023-04-09T01:26:54.317Z,6.61
2023-04-09T01:29:21.752Z,6.75
2023-04-09T01:31:48.620Z,7.05
2023-04-09T01:34:16.505Z,7.35
2023-04-09T01:36:47.151Z,7.10
2023-04-09T01:39:13.917Z,7.28
2023-04-09T01:41:41.362Z,7.36
2023-04-09T01:44:08.575Z,7.39
2023-04-09T01:46:35.419Z,7.36
2023-04-09T01:49:02.915Z,7.43
2023-04-09T01:51:29.856Z,7.71
2023-04-09T01:53:56.648Z,7.87
2023-04-09T01:56:23.153Z,7.83
2023-04-09T01:58:49.835Z,7.83
2023-04-09T02:01:41.634Z,7.78
2023-04-09T02:04:24.799Z,7.91
2023-04-09T02:07:10.747Z,7.38
2023-04-09T02:09:40.093Z,6.86
2023-04-09T02:12:11.157Z,6.56
2023-04-09T02:14:38.434Z,6.87
2023-04-09T02:17:05.158Z,6.82
2023-04-09T02:19:51.870Z,7.07
2023-04-09T02:22:18.446Z,7.04
2023-04-09T02:24:46.528Z,6.62
2023-04-09T02:27:13.149Z,6.85
2023-04-09T02:29:40.209Z,7.02
2023-04-09T02:32:06.953Z,7.19
2023-04-09T02:34:33.500Z,6.98
2023-04-09T02:37:00.064Z,7.05
2023-04-09T02:39:26.590Z,7.24
2023-04-09T02:41:53.434Z,7.22
2023-04-09T02:44:22.936Z,7.04
2023-04-09T02:46:51.061Z,6.61
2023-04-09T02:49:17.547Z,6.65
2023-04-09T02:51:44.077Z,6.33
2023-04-09T02:54:10.652Z,6.24
2023-04-09T02:56:37.536Z,6.01
2023-04-09T02:59:04.014Z,5.84
2023-04-09T03:01:30.541Z,5.76
2023-04-09T03:03:57.613Z,5.64
2023-04-09T03:06:24.396Z,5.51
2023-04-09T03:08:51.105Z,5.64
2023-04-09T03:11:17.817Z,5.58
2023-04-09T03:13:44.310Z,5.50
2023-04-09T03:16:10.949Z,5.39
2023-04-09T03:18:37.621Z,5.25
2023-04-09T03:21:07.577Z,5.42
2023-04-09T03:23:34.245Z,5.51
2023-04-09T03:26:06.984Z,5.29
2023-04-09T03:28:33.492Z,5.19
2023-04-09T03:31:00.012Z,5.28
2023-04-09T03:33:26.553Z,5.25
2023-04-09T03:35:53.203Z,5.25
2023-04-09T03:38:20.064Z,5.20
2023-04-09T03:40:46.811Z,5.21
2023-04-09T03:43:13.372Z,5.07
2023-04-09T03:45:39.889Z,5.12
2023-04-09T03:48:06.453Z,5.10
2023-04-09T03:50:38.406Z,5.19
2023-04-09T03:53:06.035Z,5.17
2023-04-09T03:55:32.513Z,5.05
2023-04-09T03:57:59.149Z,5.09
2023-04-09T04:00:25.754Z,5.08
2023-04-09T04:02:52.628Z,5.25
2023-04-09T04:05:19.419Z,5.25
2023-04-09T04:07:45.976Z,5.33
2023-04-09T04:10:12.649Z,5.34
2023-04-09T04:12:39.231Z,5.26
2023-04-09T04:15:06.112Z,5.24
2023-04-09T04:17:32.663Z,5.32
2023-04-09T04:19:59.169Z,5.29
2023-04-09T04:22:26.438Z,5.23
2023-04-09T04:24:52.972Z,5.28
2023-04-09T04:27:19.620Z,5.36
2023-04-09T04:29:46.437Z,5.54
2023-04-09T04:32:12.935Z,5.64
2023-04-09T04:34:39.491Z,5.58
2023-04-09T04:37:05.993Z,5.82
2023-04-09T04:39:32.497Z,5.66
2023-04-09T04:41:58.990Z,5.44
2023-04-09T04:44:25.524Z,5.55
2023-04-09T04:46:52.036Z,5.18
2023-04-09T04:49:18.544Z,5.29
2023-04-09T04:51:45.035Z,5.07
2023-04-09T04:54:11.850Z,4.86
2023-04-09T04:56:38.561Z,4.87
2023-04-09T04:59:05.069Z,4.78
2023-04-09T05:01:31.976Z,4.71
2023-04-09T05:03:58.651Z,4.69
2023-04-09T05:06:25.618Z,4.60
2023-04-09T05:08:52.318Z,4.65
2023-04-09T05:11:19.179Z,4.68
2023-04-09T05:13:45.793Z,4.69
2023-04-09T05:16:19.144Z,4.78
2023-04-09T05:18:46.005Z,4.84
2023-04-09T05:21:13.367Z,4.82
2023-04-09T05:23:40.000Z,4.85
2023-04-09T05:26:06.493Z,5.12
2023-04-09T05:28:33.013Z,5.14
2023-04-09T05:30:59.530Z,5.21
2023-04-09T05:33:26.021Z,5.31
2023-04-09T05:35:52.705Z,5.48
2023-04-09T05:38:19.264Z,5.67
2023-04-09T05:40:45.784Z,6.07
2023-04-09T05:43:12.357Z,6.40
2023-04-09T05:45:38.903Z,6.68
2023-04-09T05:48:06.065Z,6.51
2023-04-09T05:50:43.911Z,6.50
2023-04-09T05:53:21.042Z,6.69
2023-04-09T05:55:47.834Z,6.90
2023-04-09T05:58:14.446Z,7.12
2023-04-09T06:00:40.910Z,7.30
2023-04-09T06:03:08.527Z,7.44
2023-04-09T06:05:35.364Z,7.36
2023-04-09T06:08:02.256Z,7.01
2023-04-09T06:10:28.790Z,6.66
2023-04-09T06:12:57.703Z,6.78
2023-04-09T06:15:24.273Z,6.99
2023-04-09T06:17:50.864Z,7.21
2023-04-09T06:20:17.437Z,7.07
2023-04-09T06:22:43.930Z,7.14
2023-04-09T06:25:10.470Z,7.33
2023-04-09T06:27:36.968Z,7.57
2023-04-09T06:30:04.066Z,7.54
2023-04-09T06:32:32.028Z,7.51
2023-04-09T06:35:00.329Z,7.69
2023-04-09T06:37:26.795Z,7.91
2023-04-09T06:40:01.001Z,7.85
2023-04-09T06:42:28.128Z,7.90
2023-04-09T06:44:54.706Z,8.14
2023-04-09T06:47:21.438Z,8.15
2023-04-09T06:49:50.989Z,8.19
2023-04-09T06:52:17.490Z,8.21
2023-04-09T06:54:43.988Z,8.22
2023-04-09T06:57:10.743Z,8.54
2023-04-09T06:59:37.499Z,8.55
2023-04-09T07:02:04.367Z,8.67
2023-04-09T07:04:31.078Z,8.54
2023-04-09T07:06:57.717Z,8.47
2023-04-09T07:09:24.209Z,8.61
2023-04-09T07:11:50.710Z,9.32
2023-04-09T07:14:17.248Z,10.29
2023-04-09T07:16:43.901Z,11.15
2023-04-09T07:19:10.526Z,12.08
2023-04-09T07:21:37.125Z,12.41
2023-04-09T07:24:03.776Z,12.66
2023-04-09T07:26:30.497Z,13.35
2023-04-09T07:28:57.085Z,14.06
2023-04-09T07:31:23.676Z,14.35
2023-04-09T07:33:50.301Z,14.20
2023-04-09T07:36:16.918Z,14.18
2023-04-09T07:38:43.549Z,14.58
2023-04-09T07:41:13.240Z,15.00
2023-04-09T07:43:39.969Z,15.75
2023-04-09T07:46:06.470Z,16.26
2023-04-09T07:48:33.188Z,16.45
2023-04-09T07:50:59.843Z,16.84
2023-04-09T07:53:26.388Z,16.90
2023-04-09T07:55:53.047Z,17.18
2023-04-09T07:58:19.690Z,17.13
2023-04-09T08:00:46.260Z,16.51
2023-04-09T08:03:13.403Z,16.76
2023-04-09T08:05:40.001Z,16.17
2023-04-09T08:08:06.582Z,16.07
2023-04-09T08:10:33.074Z,16.33
2023-04-09T08:12:59.599Z,16.63
2023-04-09T08:15:26.113Z,16.69
2023-04-09T08:17:52.702Z,16.70
2023-04-09T08:20:19.255Z,16.34
2023-04-09T08:22:46.152Z,16.80
2023-04-09T08:25:12.879Z,16.76
2023-04-09T08:27:39.361Z,16.48
2023-04-09T08:30:09.133Z,16.41
2023-04-09T08:32:35.909Z,16.54
2023-04-09T08:35:02.801Z,16.34
2023-04-09T08:37:29.400Z,16.12
2023-04-09T08:39:55.905Z,16.28
2023-04-09T08:42:22.747Z,16.45
2023-04-09T08:44:50.135Z,16.44
2023-04-09T08:47:17.130Z,16.29
2023-04-09T08:49:43.636Z,15.96
2023-04-09T08:52:10.247Z,15.70
2023-04-09T08:54:36.789Z,15.64
2023-04-09T08:57:06.633Z,15.30
2023-04-09T08:59:33.188Z,15.25
2023-04-09T09:02:12.579Z,14.96
2023-04-09T09:04:47.069Z,15.01
2023-04-09T09:07:14.178Z,15.07
2023-04-09T09:10:00.913Z,14.68
2023-04-09T09:12:41.439Z,14.28
2023-04-09T09:15:30.647Z,13.87
2023-04-09T09:18:00.473Z,13.55
2023-04-09T09:20:27.339Z,13.50
2023-04-09T09:22:55.837Z,13.49
2023-04-09T09:25:23.195Z,13.14
2023-04-09T09:27:53.552Z,13.10
2023-04-09T09:30:27.166Z,12.93
2023-04-09T09:32:54.863Z,12.72
2023-04-09T09:35:24.229Z,12.56
2023-04-09T09:38:01.754Z,12.64
2023-04-09T09:40:28.354Z,12.76
2023-04-09T09:42:56.124Z,12.60
2023-04-09T09:45:23.146Z,12.60
2023-04-09T09:47:49.866Z,12.42
2023-04-09T09:50:16.370Z,12.56
2023-04-09T09:52:45.829Z,12.48
2023-04-09T09:55:16.369Z,12.22
2023-04-09T09:57:44.804Z,12.45
2023-04-09T10:00:12.832Z,12.46
2023-04-09T10:02:54.266Z,12.68
2023-04-09T10:05:21.096Z,12.68
2023-04-09T10:07:47.861Z,12.66
2023-04-09T10:10:14.392Z,12.41
2023-04-09T10:12:41.406Z,12.61
2023-04-09T10:15:09.574Z,12.69
2023-04-09T10:17:36.168Z,12.37
2023-04-09T10:20:15.971Z,12.53
2023-04-09T10:22:46.801Z,12.84
2023-04-09T10:25:14.142Z,12.82
2023-04-09T10:27:43.369Z,12.81
2023-04-09T10:30:09.980Z,12.82
2023-04-09T10:32:36.798Z,12.67
2023-04-09T10:35:04.443Z,12.48
2023-04-09T10:37:31.095Z,12.67
2023-04-09T10:39:57.768Z,12.44
2023-04-09T10:42:30.570Z,12.42
2023-04-09T10:45:13.482Z,12.54
2023-04-09T10:47:41.628Z,12.55
2023-04-09T10:50:18.685Z,12.65
2023-04-09T10:52:45.514Z,12.76
2023-04-09T10:55:32.676Z,12.37
2023-04-09T10:57:59.701Z,12.35
2023-04-09T11:00:26.336Z,12.46
2023-04-09T11:03:07.302Z,12.66
2023-04-09T11:05:35.773Z,12.57
2023-04-09T11:08:05.209Z,12.85
2023-04-09T11:10:33.049Z,12.90
2023-04-09T11:13:00.175Z,12.75
2023-04-09T11:15:27.497Z,12.96
2023-04-09T11:17:54.350Z,12.96
2023-04-09T11:20:27.723Z,12.90
2023-04-09T11:22:55.965Z,12.94
2023-04-09T11:25:25.355Z,13.08
2023-04-09T11:27:52.571Z,13.15
2023-04-09T11:30:19.950Z,13.16
2023-04-09T11:32:46.637Z,13.02
2023-04-09T11:35:14.878Z,13.17
2023-04-09T11:37:42.577Z,13.26
2023-04-09T11:40:16.624Z,13.27
2023-04-09T11:42:44.757Z,13.45
2023-04-09T11:45:11.856Z,13.39
2023-04-09T11:47:39.778Z,13.58
2023-04-09T11:50:07.906Z,13.54
2023-04-09T11:52:34.844Z,13.63
2023-04-09T11:55:02.568Z,13.55
2023-04-09T11:57:40.758Z,13.56
2023-04-09T12:00:20.456Z,13.12
2023-04-09T12:02:49.001Z,13.17
2023-04-09T12:05:27.921Z,13.31
2023-04-09T12:08:04.175Z,13.51
2023-04-09T12:10:35.484Z,13.71
2023-04-09T12:13:09.641Z,13.96
2023-04-09T12:15:38.497Z,13.83
2023-04-09T12:18:08.715Z,14.02
2023-04-09T12:20:36.964Z,13.85
2023-04-09T12:23:04.845Z,13.80
2023-04-09T12:25:33.385Z,13.95
2023-04-09T12:27:59.920Z,14.12
2023-04-09T12:30:26.449Z,14.18
2023-04-09T12:32:53.922Z,14.05
2023-04-09T12:35:24.213Z,14.16
2023-04-09T12:37:51.596Z,14.28
2023-04-09T12:40:19.307Z,14.62
2023-04-09T12:42:46.181Z,14.51
2023-04-09T12:45:14.849Z,14.34
2023-04-09T12:47:41.516Z,14.61
2023-04-09T12:50:15.081Z,14.69
2023-04-09T12:52:42.333Z,14.83
2023-04-09T12:55:12.029Z,14.79
2023-04-09T12:57:41.614Z,14.90
2023-04-09T13:00:08.539Z,14.78
2023-04-09T13:02:36.037Z,14.81
2023-04-09T13:05:02.830Z,14.80
2023-04-09T13:07:29.358Z,14.80
2023-04-09T13:09:56.911Z,14.80
2023-04-09T13:12:23.500Z,14.79
2023-04-09T13:14:54.089Z,14.78
2023-04-09T13:17:20.724Z,14.78
2023-04-09T13:19:47.262Z,14.84
2023-04-09T13:22:14.047Z,14.72
2023-04-09T13:24:40.614Z,14.75
2023-04-09T13:27:07.396Z,14.70
2023-04-09T13:29:33.896Z,14.87
2023-04-09T13:32:00.369Z,14.97
2023-04-09T13:34:26.917Z,14.86
2023-04-09T13:36:53.481Z,14.88
2023-04-09T13:39:20.591Z,15.02
2023-04-09T13:41:47.091Z,15.12
2023-04-09T13:44:13.633Z,15.36
2023-04-09T13:46:40.218Z,15.17
2023-04-09T13:49:06.766Z,15.14
2023-04-09T13:51:33.718Z,15.21
2023-04-09T13:54:00.224Z,15.20
2023-04-09T13:56:26.927Z,15.28
2023-04-09T13:58:53.749Z,15.33
2023-04-09T14:01:20.468Z,15.56
2023-04-09T14:03:47.350Z,15.63
2023-04-09T14:06:13.966Z,15.63
2023-04-09T14:08:40.465Z,15.49
2023-04-09T14:11:07.014Z,15.55
2023-04-09T14:13:33.967Z,15.54
2023-04-09T14:16:00.901Z,15.72
2023-04-09T14:18:27.542Z,15.76
2023-04-09T14:20:54.101Z,15.70
2023-04-09T14:23:20.683Z,15.93
2023-04-09T14:25:47.319Z,15.81
2023-04-09T14:28:13.930Z,16.01
2023-04-09T14:30:40.411Z,16.27
2023-04-09T14:33:06.932Z,16.09
2023-04-09T14:35:33.502Z,16.28
2023-04-09T14:38:02.570Z,16.45
2023-04-09T14:40:29.148Z,16.56
2023-04-09T14:42:55.616Z,16.49
2023-04-09T14:45:22.238Z,16.40
2023-04-09T14:47:48.790Z,16.57
2023-04-09T14:50:15.390Z,16.29
2023-04-09T14:52:42.110Z,16.37
2023-04-09T14:55:09.325Z,16.51
2023-04-09T14:57:35.837Z,16.32
2023-04-09T15:00:08.532Z,16.23
2023-04-09T15:02:35.643Z,16.30
2023-04-09T15:05:03.200Z,16.26
2023-04-09T15:07:30.001Z,16.03
2023-04-09T15:09:57.728Z,16.24
2023-04-09T15:12:24.374Z,16.42
2023-04-09T15:14:52.513Z,16.42
2023-04-09T15:17:19.366Z,16.37
2023-04-09T15:19:46.689Z,16.49
2023-04-09T15:22:13.319Z,16.55
2023-04-09T15:24:39.815Z,16.59
2023-04-09T15:27:06.313Z,16.36
2023-04-09T15:29:35.972Z,16.59
2023-04-09T15:32:02.909Z,16.23
2023-04-09T15:34:29.629Z,16.38
2023-04-09T15:36:56.924Z,16.37
2023-04-09T15:39:23.567Z,16.43
2023-04-09T15:41:50.526Z,16.39
2023-04-09T15:44:19.520Z,16.57
2023-04-09T15:46:46.387Z,16.72
2023-04-09T15:49:13.105Z,16.72
2023-04-09T15:51:39.847Z,16.51
2023-04-09T15:54:06.395Z,16.66
2023-04-09T15:56:32.954Z,16.45
2023-04-09T15:58:59.449Z,16.54
2023-04-09T16:01:26.587Z,16.62
2023-04-09T16:03:53.260Z,16.45
2023-04-09T16:06:19.874Z,16.42
2023-04-09T16:08:46.503Z,16.46
2023-04-09T16:11:13.002Z,16.55
2023-04-09T16:13:39.648Z,16.48
2023-04-09T16:16:06.539Z,16.42
2023-04-09T16:18:33.470Z,16.42
2023-04-09T16:21:00.286Z,16.35
2023-04-09T16:23:29.068Z,16.25
2023-04-09T16:25:57.100Z,16.32
2023-04-09T16:28:23.878Z,16.18
2023-04-09T16:30:50.352Z,16.20
2023-04-09T16:33:16.977Z,16.13
2023-04-09T16:35:43.570Z,16.09
2023-04-09T16:38:10.614Z,16.12
2023-04-09T16:40:37.270Z,16.18
2023-04-09T16:43:04.232Z,16.25
2023-04-09T16:45:30.826Z,16.17
2023-04-09T16:47:57.490Z,16.17
2023-04-09T16:50:25.326Z,16.05
2023-04-09T16:52:51.836Z,16.10
2023-04-09T16:55:18.343Z,16.06
2023-04-09T16:57:46.620Z,16.18
2023-04-09T17:00:13.452Z,16.24
2023-04-09T17:02:40.351Z,16.24
2023-04-09T17:05:07.224Z,16.19
2023-04-09T17:07:33.696Z,16.18
2023-04-09T17:10:00.315Z,16.06
2023-04-09T17:12:26.889Z,16.10
2023-04-09T17:14:53.435Z,16.17
2023-04-09T17:17:19.968Z,15.96
2023-04-09T17:19:46.539Z,15.93
2023-04-09T17:22:13.150Z,15.74
2023-04-09T17:24:39.957Z,15.53
2023-04-09T17:27:06.495Z,15.41
2023-04-09T17:29:33.101Z,15.23
2023-04-09T17:31:59.688Z,14.90
2023-04-09T17:34:26.243Z,14.50
2023-04-09T17:36:55.978Z,14.35
2023-04-09T17:39:23.409Z,14.16
2023-04-09T17:41:52.234Z,13.99
2023-04-09T17:44:18.728Z,13.95
2023-04-09T17:46:45.307Z,13.66
2023-04-09T17:49:11.901Z,13.50
2023-04-09T17:51:38.435Z,13.42
2023-04-09T17:54:05.242Z,13.38
2023-04-09T17:56:31.795Z,13.26
2023-04-09T17:58:58.338Z,13.05
2023-04-09T18:01:24.950Z,12.93
2023-04-09T18:03:51.882Z,12.71
2023-04-09T18:06:18.599Z,12.74
2023-04-09T18:08:45.075Z,12.49
2023-04-09T18:11:13.096Z,12.45
2023-04-09T18:13:40.232Z,12.42
2023-04-09T18:16:09.569Z,12.26
2023-04-09T18:18:36.082Z,12.20
2023-04-09T18:21:02.753Z,12.11
2023-04-09T18:23:29.692Z,12.01
2023-04-09T18:25:56.224Z,12.06
2023-04-09T18:28:22.844Z,12.11
2023-04-09T18:30:49.310Z,11.85
2023-04-09T18:33:15.920Z,11.86
2023-04-09T18:35:42.435Z,11.65
2023-04-09T18:38:08.914Z,11.59
2023-04-09T18:40:41.289Z,11.53
2023-04-09T18:43:07.892Z,11.49
2023-04-09T18:45:34.701Z,11.51
2023-04-09T18:48:01.436Z,11.50
2023-04-09T18:50:28.188Z,11.52
2023-04-09T18:52:54.738Z,11.47
2023-04-09T18:55:21.336Z,11.38
2023-04-09T18:57:47.829Z,11.35
2023-04-09T19:00:14.608Z,11.27
2023-04-09T19:02:41.460Z,11.22
2023-04-09T19:05:08.517Z,11.13
2023-04-09T19:07:35.063Z,11.17
2023-04-09T19:10:01.743Z,11.21
2023-04-09T19:12:31.321Z,11.16
2023-04-09T19:14:57.850Z,11.20
2023-04-09T19:17:24.385Z,11.03
2023-04-09T19:19:58.332Z,11.14
2023-04-09T19:22:25.069Z,10.92
2023-04-09T19:24:51.596Z,11.01
2023-04-09T19:27:18.081Z,11.05
2023-04-09T19:29:44.929Z,10.94
2023-04-09T19:32:11.486Z,10.97
2023-04-09T19:34:37.985Z,10.93
2023-04-09T19:37:04.459Z,10.91
2023-04-09T19:39:30.994Z,10.89
2023-04-09T19:41:57.509Z,10.85
2023-04-09T19:44:24.105Z,10.82
2023-04-09T19:46:50.628Z,10.86
2023-04-09T19:49:17.430Z,10.77
2023-04-09T19:51:43.900Z,10.82
2023-04-09T19:54:10.395Z,10.76
2023-04-09T19:56:36.951Z,10.73
2023-04-09T19:59:03.915Z,10.82
2023-04-09T20:01:30.440Z,10.82
2023-04-09T20:03:57.161Z,10.62
2023-04-09T20:06:23.875Z,10.53
2023-04-09T20:08:51.537Z,10.58
2023-04-09T20:11:18.663Z,10.56
2023-04-09T20:13:45.309Z,10.49
2023-04-09T20:16:11.999Z,10.44
2023-04-09T20:18:38.697Z,10.31
2023-04-09T20:21:05.456Z,10.27
2023-04-09T20:23:35.192Z,10.23
2023-04-09T20:26:01.884Z,10.27
2023-04-09T20:28:28.406Z,10.17
2023-04-09T20:30:57.511Z,10.15
2023-04-09T20:33:24.004Z,10.28
2023-04-09T20:35:50.693Z,10.17
2023-04-09T20:38:17.398Z,10.36
2023-04-09T20:40:44.306Z,10.11
2023-04-09T20:43:10.866Z,10.21
2023-04-09T20:45:37.438Z,10.14
2023-04-09T20:48:04.103Z,10.14
2023-04-09T20:50:30.668Z,10.08
2023-04-09T20:52:58.491Z,9.93
2023-04-09T20:55:25.673Z,9.93
2023-04-09T20:57:53.683Z,9.94
2023-04-09T21:00:22.926Z,9.90
2023-04-09T21:02:49.728Z,9.89
2023-04-09T21:05:22.591Z,10.05
2023-04-09T21:07:50.956Z,10.36
2023-04-09T21:10:17.615Z,10.48
2023-04-09T21:12:44.090Z,10.56
2023-04-09T21:15:11.064Z,10.74
2023-04-09T21:17:37.646Z,10.67
2023-04-09T21:20:04.552Z,10.85
2023-04-09T21:22:31.183Z,11.09
2023-04-09T21:24:57.693Z,11.28
2023-04-09T21:27:24.256Z,11.46
2023-04-09T21:29:51.043Z,11.49
2023-04-09T21:32:17.544Z,11.41
2023-04-09T21:34:44.086Z,10.92
2023-04-09T21:37:10.622Z,10.56
2023-04-09T21:39:37.222Z,10.53
2023-04-09T21:42:04.053Z,10.44
2023-04-09T21:44:30.710Z,10.26
2023-04-09T21:46:57.323Z,10.19
2023-04-09T21:49:23.859Z,10.07
2023-04-09T21:51:50.390Z,10.04
2023-04-09T21:54:16.887Z,10.19
2023-04-09T21:56:43.403Z,10.16
2023-04-09T21:59:09.945Z,10.19
2023-04-09T22:01:36.651Z,10.42
2023-04-09T22:04:03.736Z,10.59
2023-04-09T22:06:30.512Z,10.45
2023-04-09T22:08:57.754Z,10.35
2023-04-09T22:11:26.043Z,10.16
2023-04-09T22:13:52.533Z,10.05
2023-04-09T22:16:19.198Z,9.77
2023-04-09T22:18:45.799Z,9.62
2023-04-09T22:21:16.132Z,9.66
2023-04-09T22:23:45.470Z,9.95
2023-04-09T22:26:11.983Z,10.04
2023-04-09T22:28:38.570Z,10.22
2023-04-09T22:31:05.586Z,10.23
2023-04-09T22:33:32.228Z,9.94
2023-04-09T22:35:58.741Z,9.85
2023-04-09T22:38:25.833Z,10.00
2023-04-09T22:40:52.388Z,9.82
2023-04-09T22:43:19.004Z,9.96
2023-04-09T22:45:52.426Z,10.00
2023-04-09T22:48:19.718Z,10.03
2023-04-09T22:50:47.127Z,9.92
2023-04-09T22:53:13.976Z,9.89
2023-04-09T22:55:40.574Z,9.39
2023-04-09T22:58:07.069Z,9.71
2023-04-09T23:00:33.632Z,9.72
2023-04-09T23:03:00.300Z,9.53
2023-04-09T23:05:27.172Z,9.42
2023-04-09T23:07:53.860Z,9.56
2023-04-09T23:10:21.628Z,9.50
2023-04-09T23:12:48.170Z,9.42
2023-04-09T23:15:14.732Z,9.12
2023-04-09T23:17:41.349Z,9.17
2023-04-09T23:20:08.454Z,9.21
2023-04-09T23:22:35.104Z,9.24
2023-04-09T23:25:01.649Z,9.07
2023-04-09T23:27:28.257Z,9.04
2023-04-09T23:29:57.955Z,8.74
2023-04-09T23:32:24.578Z,8.54
2023-04-09T23:34:51.211Z,8.67
2023-04-09T23:37:18.264Z,8.60
2023-04-09T23:39:46.786Z,8.48
2023-04-09T23:42:13.291Z,8.32
2023-04-09T23:44:39.803Z,8.35
2023-04-09T23:47:06.306Z,8.30
2023-04-09T23:49:32.884Z,8.35
2023-04-09T23:51:59.457Z,8.38
2023-04-09T23:54:26.996Z,8.36
2023-04-09T23:56:53.558Z,8.32
2023-04-09T23:59:20.058Z,8.47
